sensor_id;sensor_type;location;lat;lon;timestamp;pressure;altitude;pressure_sealevel;temperature;humidity
39891;BME280;25564;53.312;9.790;2022-11-15T00:01:01;100411.19;;;8.26;97.35
39891;BME280;25564;53.312;9.790;2022-11-15T00:03:32;100416.38;;;8.32;97.29
39891;BME280;25564;53.312;9.790;2022-11-15T00:06:04;100411.03;;;8.38;97.17
39891;BME280;25564;53.312;9.790;2022-11-15T00:08:35;100406.53;;;8.45;96.96
39891;BME280;25564;53.312;9.790;2022-11-15T00:11:08;100410.84;;;8.50;96.85
39891;BME280;25564;53.312;9.790;2022-11-15T00:13:40;100407.28;;;8.55;96.99
39891;BME280;25564;53.312;9.790;2022-11-15T00:16:12;100403.66;;;8.60;97.29
39891;BME280;25564;53.312;9.790;2022-11-15T00:18:43;100403.66;;;8.62;96.96
39891;BME280;25564;53.312;9.790;2022-11-15T00:21:21;100401.91;;;8.61;96.71
39891;BME280;25564;53.312;9.790;2022-11-15T00:23:52;100406.34;;;8.59;96.79
39891;BME280;25564;53.312;9.790;2022-11-15T00:26:23;100402.91;;;8.52;96.49
39891;BME280;25564;53.312;9.790;2022-11-15T00:28:54;100396.00;;;8.42;97.03
39891;BME280;25564;53.312;9.790;2022-11-15T00:31:26;100395.22;;;8.32;96.76
39891;BME280;25564;53.312;9.790;2022-11-15T00:33:57;100396.25;;;8.24;96.64
39891;BME280;25564;53.312;9.790;2022-11-15T00:36:28;100404.28;;;8.14;96.43
39891;BME280;25564;53.312;9.790;2022-11-15T00:38:59;100401.75;;;8.05;96.44
39891;BME280;25564;53.312;9.790;2022-11-15T00:41:31;100400.09;;;7.97;96.50
39891;BME280;25564;53.312;9.790;2022-11-15T00:44:02;100403.69;;;7.91;96.19
39891;BME280;25564;53.312;9.790;2022-11-15T00:46:33;100405.53;;;7.84;96.26
39891;BME280;25564;53.312;9.790;2022-11-15T00:49:04;100393.28;;;7.76;95.93
39891;BME280;25564;53.312;9.790;2022-11-15T00:51:36;100404.84;;;7.67;96.07
39891;BME280;25564;53.312;9.790;2022-11-15T00:54:07;100409.31;;;7.61;96.12
39891;BME280;25564;53.312;9.790;2022-11-15T00:56:38;100407.63;;;7.53;95.67
39891;BME280;25564;53.312;9.790;2022-11-15T00:59:09;100404.16;;;7.47;95.42
39891;BME280;25564;53.312;9.790;2022-11-15T01:01:41;100401.59;;;7.41;95.51
39891;BME280;25564;53.312;9.790;2022-11-15T01:04:12;100406.03;;;7.34;95.55
39891;BME280;25564;53.312;9.790;2022-11-15T01:06:43;100400.81;;;7.30;95.49
39891;BME280;25564;53.312;9.790;2022-11-15T01:09:14;100397.38;;;7.25;95.52
39891;BME280;25564;53.312;9.790;2022-11-15T01:11:46;100398.31;;;7.17;95.58
39891;BME280;25564;53.312;9.790;2022-11-15T01:14:17;100401.00;;;7.11;95.34
39891;BME280;25564;53.312;9.790;2022-11-15T01:16:55;100394.91;;;7.06;95.37
39891;BME280;25564;53.312;9.790;2022-11-15T01:19:26;100398.47;;;7.01;95.30
39891;BME280;25564;53.312;9.790;2022-11-15T01:21:57;100401.13;;;6.96;95.40
39891;BME280;25564;53.312;9.790;2022-11-15T01:24:29;100389.75;;;6.91;95.33
39891;BME280;25564;53.312;9.790;2022-11-15T01:27:00;100397.69;;;6.88;95.38
39891;BME280;25564;53.312;9.790;2022-11-15T01:29:31;100399.47;;;6.83;95.40
39891;BME280;25564;53.312;9.790;2022-11-15T01:32:02;100388.94;;;6.80;95.30
39891;BME280;25564;53.312;9.790;2022-11-15T01:34:34;100385.47;;;6.75;95.36
39891;BME280;25564;53.312;9.790;2022-11-15T01:37:05;100389.88;;;6.73;95.28
39891;BME280;25564;53.312;9.790;2022-11-15T01:39:36;100384.59;;;6.73;95.30
39891;BME280;25564;53.312;9.790;2022-11-15T01:42:11;100378.47;;;6.69;95.29
39891;BME280;25564;53.312;9.790;2022-11-15T01:44:44;100383.78;;;6.65;95.28
39891;BME280;25564;53.312;9.790;2022-11-15T01:49:58;100375.91;;;6.59;95.40
39891;BME280;25564;53.312;9.790;2022-11-15T01:52:31;100367.16;;;6.56;95.15
39891;BME280;25564;53.312;9.790;2022-11-15T01:57:47;100368.94;;;6.48;94.71
39891;BME280;25564;53.312;9.790;2022-11-15T02:00:18;100359.31;;;6.43;94.96
39891;BME280;25564;53.312;9.790;2022-11-15T02:02:50;100361.13;;;6.36;94.85
39891;BME280;25564;53.312;9.790;2022-11-15T02:05:21;100367.28;;;6.32;94.72
39891;BME280;25564;53.312;9.790;2022-11-15T02:07:53;100362.06;;;6.26;94.84
39891;BME280;25564;53.312;9.790;2022-11-15T02:10:24;100358.59;;;6.21;94.89
39891;BME280;25564;53.312;9.790;2022-11-15T02:12:56;100358.66;;;6.15;94.72
39891;BME280;25564;53.312;9.790;2022-11-15T02:15:30;100360.44;;;6.10;94.57
39891;BME280;25564;53.312;9.790;2022-11-15T02:18:07;100350.78;;;6.04;94.40
39891;BME280;25564;53.312;9.790;2022-11-15T02:20:52;100341.16;;;6.00;94.54
39891;BME280;25564;53.312;9.790;2022-11-15T02:28:53;100349.97;;;5.90;94.78
39891;BME280;25564;53.312;9.790;2022-11-15T02:31:36;100342.06;;;5.88;94.70
39891;BME280;25564;53.312;9.790;2022-11-15T02:36:49;100349.97;;;5.85;94.19
39891;BME280;25564;53.312;9.790;2022-11-15T02:39:26;100338.56;;;5.85;94.75
39891;BME280;25564;53.312;9.790;2022-11-15T02:42:02;100332.41;;;5.87;94.77
39891;BME280;25564;53.312;9.790;2022-11-15T02:44:37;100330.66;;;5.86;94.96
39891;BME280;25564;53.312;9.790;2022-11-15T02:47:10;100333.28;;;5.86;95.40
39891;BME280;25564;53.312;9.790;2022-11-15T02:49:47;100333.28;;;5.88;95.14
39891;BME280;25564;53.312;9.790;2022-11-15T02:52:19;100329.78;;;5.87;94.98
39891;BME280;25564;53.312;9.790;2022-11-15T02:54:54;100335.06;;;5.89;95.05
39891;BME280;25564;53.312;9.790;2022-11-15T02:57:37;100336.81;;;5.90;95.12
39891;BME280;25564;53.312;9.790;2022-11-15T03:00:15;100335.94;;;5.93;95.62
39891;BME280;25564;53.312;9.790;2022-11-15T03:05:53;100333.25;;;6.00;95.00
39891;BME280;25564;53.312;9.790;2022-11-15T03:08:42;100328.00;;;6.00;95.65
39891;BME280;25564;53.312;9.790;2022-11-15T03:11:17;100332.38;;;6.01;95.66
39891;BME280;25564;53.312;9.790;2022-11-15T03:16:30;100333.25;;;6.03;95.40
39891;BME280;25564;53.312;9.790;2022-11-15T03:19:19;100333.22;;;6.05;95.18
39891;BME280;25564;53.312;9.790;2022-11-15T03:21:53;100328.81;;;6.10;95.30
39891;BME280;25564;53.312;9.790;2022-11-15T03:24:26;100324.41;;;6.12;95.83
39891;BME280;25564;53.312;9.790;2022-11-15T03:27:00;100318.25;;;6.14;95.43
39891;BME280;25564;53.312;9.790;2022-11-15T03:29:33;100334.91;;;6.18;95.41
39891;BME280;25564;53.312;9.790;2022-11-15T03:32:14;100312.00;;;6.24;95.66
39891;BME280;25564;53.312;9.790;2022-11-15T03:34:48;100318.09;;;6.33;96.10
39891;BME280;25564;53.312;9.790;2022-11-15T03:37:22;100323.31;;;6.43;95.74
39891;BME280;25564;53.312;9.790;2022-11-15T03:39:55;100324.97;;;6.56;96.26
39891;BME280;25564;53.312;9.790;2022-11-15T03:42:38;100335.38;;;6.72;96.49
39891;BME280;25564;53.312;9.790;2022-11-15T03:45:16;100337.91;;;6.87;96.21
39891;BME280;25564;53.312;9.790;2022-11-15T03:47:51;100330.75;;;7.01;96.58
39891;BME280;25564;53.312;9.790;2022-11-15T03:50:24;100328.84;;;7.15;96.76
39891;BME280;25564;53.312;9.790;2022-11-15T03:52:55;100323.44;;;7.28;96.82
39891;BME280;25564;53.312;9.790;2022-11-15T03:55:28;100328.56;;;7.40;97.00
39891;BME280;25564;53.312;9.790;2022-11-15T03:58:00;100317.00;;;7.50;97.49
39891;BME280;25564;53.312;9.790;2022-11-15T04:00:31;100317.75;;;7.61;97.13
39891;BME280;25564;53.312;9.790;2022-11-15T04:03:02;100315.88;;;7.71;96.82
39891;BME280;25564;53.312;9.790;2022-11-15T04:05:34;100314.00;;;7.80;97.45
39891;BME280;25564;53.312;9.790;2022-11-15T04:08:05;100317.41;;;7.88;96.92
39891;BME280;25564;53.312;9.790;2022-11-15T04:10:36;100312.91;;;7.97;96.97
39891;BME280;25564;53.312;9.790;2022-11-15T04:13:07;100311.03;;;8.05;97.26
39891;BME280;25564;53.312;9.790;2022-11-15T04:15:39;100310.94;;;8.11;97.43
39891;BME280;25564;53.312;9.790;2022-11-15T04:18:10;100308.19;;;8.18;97.09
39891;BME280;25564;53.312;9.790;2022-11-15T04:20:41;100309.84;;;8.26;97.32
39891;BME280;25564;53.312;9.790;2022-11-15T04:23:31;100314.13;;;8.34;97.61
39891;BME280;25564;53.312;9.790;2022-11-15T04:26:21;100308.75;;;8.42;97.33
39891;BME280;25564;53.312;9.790;2022-11-15T04:28:53;100298.94;;;8.48;97.12
39891;BME280;25564;53.312;9.790;2022-11-15T04:31:43;100304.13;;;8.55;97.74
39891;BME280;25564;53.312;9.790;2022-11-15T04:34:14;100313.72;;;8.62;97.13
39891;BME280;25564;53.312;9.790;2022-11-15T04:36:46;100300.41;;;8.68;97.15
39891;BME280;25564;53.312;9.790;2022-11-15T04:39:36;100295.84;;;8.76;97.13
39891;BME280;25564;53.312;9.790;2022-11-15T04:42:07;100300.13;;;8.83;97.44
39891;BME280;25564;53.312;9.790;2022-11-15T04:44:39;100291.19;;;8.90;97.89
39891;BME280;25564;53.312;9.790;2022-11-15T04:47:10;100287.56;;;8.96;97.34
39891;BME280;25564;53.312;9.790;2022-11-15T04:49:42;100289.28;;;8.98;97.99
39891;BME280;25564;53.312;9.790;2022-11-15T04:52:15;100291.84;;;9.03;97.25
39891;BME280;25564;53.312;9.790;2022-11-15T04:54:46;100300.59;;;9.06;97.40
39891;BME280;25564;53.312;9.790;2022-11-15T04:57:17;100303.16;;;9.11;97.72
39891;BME280;25564;53.312;9.790;2022-11-15T04:59:48;100300.44;;;9.15;97.47
39891;BME280;25564;53.312;9.790;2022-11-15T05:02:19;100303.84;;;9.22;97.81
39891;BME280;25564;53.312;9.790;2022-11-15T05:04:51;100263.56;;;9.06;97.61
39891;BME280;25564;53.312;9.790;2022-11-15T05:07:22;100300.09;;;9.34;97.82
39891;BME280;25564;53.312;9.790;2022-11-15T05:09:53;100292.00;;;9.40;97.25
39891;BME280;25564;53.312;9.790;2022-11-15T05:12:25;100285.75;;;9.44;97.85
39891;BME280;25564;53.312;9.790;2022-11-15T05:14:56;100291.84;;;9.47;97.81
39891;BME280;25564;53.312;9.790;2022-11-15T05:17:27;100280.28;;;9.51;97.85
39891;BME280;25564;53.312;9.790;2022-11-15T05:19:58;100284.63;;;9.56;97.38
39891;BME280;25564;53.312;9.790;2022-11-15T05:22:30;100285.44;;;9.59;97.59
39891;BME280;25564;53.312;9.790;2022-11-15T05:25:01;100289.72;;;9.65;97.87
39891;BME280;25564;53.312;9.790;2022-11-15T05:27:33;100281.69;;;9.69;97.75
39891;BME280;25564;53.312;9.790;2022-11-15T05:30:05;100293.06;;;9.74;97.34
39891;BME280;25564;53.312;9.790;2022-11-15T05:32:36;100284.19;;;9.77;97.43
39891;BME280;25564;53.312;9.790;2022-11-15T05:35:08;100294.69;;;9.81;97.47
39891;BME280;25564;53.312;9.790;2022-11-15T05:37:43;100291.97;;;9.84;97.36
39891;BME280;25564;53.312;9.790;2022-11-15T05:40:14;100291.91;;;9.88;97.36
39891;BME280;25564;53.312;9.790;2022-11-15T05:42:46;100297.09;;;9.92;97.64
39891;BME280;25564;53.312;9.790;2022-11-15T05:45:17;100296.13;;;9.96;97.86
39891;BME280;25564;53.312;9.790;2022-11-15T05:47:56;100294.31;;;9.98;97.72
39891;BME280;25564;53.312;9.790;2022-11-15T05:50:30;100297.81;;;10.00;97.92
39891;BME280;25564;53.312;9.790;2022-11-15T05:53:02;100296.81;;;10.06;97.41
39891;BME280;25564;53.312;9.790;2022-11-15T05:55:36;100295.88;;;10.08;97.77
39891;BME280;25564;53.312;9.790;2022-11-15T05:58:09;100305.53;;;10.11;97.63
39891;BME280;25564;53.312;9.790;2022-11-15T06:00:40;100305.47;;;10.14;97.89
39891;BME280;25564;53.312;9.790;2022-11-15T06:03:11;100297.44;;;10.17;97.82
39891;BME280;25564;53.312;9.790;2022-11-15T06:05:45;100299.19;;;10.20;97.60
39891;BME280;25564;53.312;9.790;2022-11-15T06:08:16;100304.41;;;10.23;97.73
39891;BME280;25564;53.312;9.790;2022-11-15T06:10:47;100303.47;;;10.25;97.64
39891;BME280;25564;53.312;9.790;2022-11-15T06:13:18;100303.41;;;10.28;97.86
39891;BME280;25564;53.312;9.790;2022-11-15T06:15:50;100314.84;;;10.30;97.65
39891;BME280;25564;53.312;9.790;2022-11-15T06:18:21;100318.34;;;10.32;97.76
39891;BME280;25564;53.312;9.790;2022-11-15T06:20:52;100313.88;;;10.34;97.58
39891;BME280;25564;53.312;9.790;2022-11-15T06:23:23;100315.59;;;10.37;97.73
39891;BME280;25564;53.312;9.790;2022-11-15T06:25:57;100311.13;;;10.39;97.91
39891;BME280;25564;53.312;9.790;2022-11-15T06:28:29;100305.72;;;10.42;97.85
39891;BME280;25564;53.312;9.790;2022-11-15T06:31:10;100310.94;;;10.45;97.56
39891;BME280;25564;53.312;9.790;2022-11-15T06:33:44;100315.31;;;10.47;97.74
39891;BME280;25564;53.312;9.790;2022-11-15T06:36:15;100313.47;;;10.49;97.54
39891;BME280;25564;53.312;9.790;2022-11-15T06:38:48;100316.97;;;10.52;97.69
39891;BME280;25564;53.312;9.790;2022-11-15T06:41:19;100318.69;;;10.54;97.65
39891;BME280;25564;53.312;9.790;2022-11-15T06:43:52;100324.78;;;10.58;97.86
39891;BME280;25564;53.312;9.790;2022-11-15T06:46:23;100324.69;;;10.62;97.57
39891;BME280;25564;53.312;9.790;2022-11-15T06:48:54;100323.72;;;10.65;98.00
39891;BME280;25564;53.312;9.790;2022-11-15T06:51:26;100321.91;;;10.67;97.65
39891;BME280;25564;53.312;9.790;2022-11-15T06:53:57;100324.50;;;10.70;97.72
39891;BME280;25564;53.312;9.790;2022-11-15T06:56:28;100326.16;;;10.74;97.60
39891;BME280;25564;53.312;9.790;2022-11-15T06:59:00;100327.00;;;10.76;97.75
39891;BME280;25564;53.312;9.790;2022-11-15T07:01:31;100337.53;;;10.79;97.71
39891;BME280;25564;53.312;9.790;2022-11-15T07:04:03;100340.13;;;10.82;97.98
39891;BME280;25564;53.312;9.790;2022-11-15T07:06:34;100341.88;;;10.83;97.66
39891;BME280;25564;53.312;9.790;2022-11-15T07:09:05;100344.44;;;10.86;97.85
39891;BME280;25564;53.312;9.790;2022-11-15T07:11:37;100347.94;;;10.88;97.88
39891;BME280;25564;53.312;9.790;2022-11-15T07:14:08;100352.28;;;10.91;97.82
39891;BME280;25564;53.312;9.790;2022-11-15T07:16:39;100361.09;;;10.93;97.69
39891;BME280;25564;53.312;9.790;2022-11-15T07:19:10;100359.31;;;10.93;97.89
39891;BME280;25564;53.312;9.790;2022-11-15T07:21:42;100355.75;;;10.94;97.68
39891;BME280;25564;53.312;9.790;2022-11-15T07:24:13;100350.38;;;10.97;97.66
39891;BME280;25564;53.312;9.790;2022-11-15T07:26:44;100341.44;;;11.00;97.65
39891;BME280;25564;53.312;9.790;2022-11-15T07:29:15;100349.38;;;11.01;97.81
39891;BME280;25564;53.312;9.790;2022-11-15T07:31:47;100344.06;;;11.01;97.75
39891;BME280;25564;53.312;9.790;2022-11-15T07:34:19;100344.81;;;11.06;97.97
39891;BME280;25564;53.312;9.790;2022-11-15T07:36:50;100343.84;;;11.10;97.65
39891;BME280;25564;53.312;9.790;2022-11-15T07:39:21;100335.78;;;11.13;97.98
39891;BME280;25564;53.312;9.790;2022-11-15T07:41:52;100346.28;;;11.18;97.83
39891;BME280;25564;53.312;9.790;2022-11-15T07:44:44;100336.47;;;11.22;97.83
39891;BME280;25564;53.312;9.790;2022-11-15T07:47:15;100339.03;;;11.25;97.75
39891;BME280;25564;53.312;9.790;2022-11-15T07:49:46;100346.94;;;11.28;97.71
39891;BME280;25564;53.312;9.790;2022-11-15T07:52:18;100333.56;;;11.31;97.70
39891;BME280;25564;53.312;9.790;2022-11-15T07:54:49;100324.59;;;11.35;97.69
39891;BME280;25564;53.312;9.790;2022-11-15T07:57:20;100331.53;;;11.40;97.75
39891;BME280;25564;53.312;9.790;2022-11-15T07:59:51;100327.84;;;11.44;97.82
39891;BME280;25564;53.312;9.790;2022-11-15T08:02:23;100331.28;;;11.48;97.87
39891;BME280;25564;53.312;9.790;2022-11-15T08:05:00;100340.88;;;11.54;97.68
39891;BME280;25564;53.312;9.790;2022-11-15T08:07:31;100334.53;;;11.59;98.00
39891;BME280;25564;53.312;9.790;2022-11-15T08:10:03;100335.25;;;11.64;97.82
39891;BME280;25564;53.312;9.790;2022-11-15T08:12:36;100341.31;;;11.69;97.74
39891;BME280;25564;53.312;9.790;2022-11-15T08:15:08;100334.31;;;11.67;97.82
39891;BME280;25564;53.312;9.790;2022-11-15T08:17:39;100338.09;;;11.58;97.77
39891;BME280;25564;53.312;9.790;2022-11-15T08:20:11;100336.56;;;11.50;97.66
39891;BME280;25564;53.312;9.790;2022-11-15T08:22:42;100342.13;;;11.42;97.63
39891;BME280;25564;53.312;9.790;2022-11-15T08:25:13;100339.47;;;11.42;97.79
39891;BME280;25564;53.312;9.790;2022-11-15T08:27:44;100341.00;;;11.49;97.97
39891;BME280;25564;53.312;9.790;2022-11-15T08:30:16;100338.13;;;11.57;97.92
39891;BME280;25564;53.312;9.790;2022-11-15T08:32:48;100340.31;;;11.73;98.16
39891;BME280;25564;53.312;9.790;2022-11-15T08:35:20;100341.56;;;11.93;98.13
39891;BME280;25564;53.312;9.790;2022-11-15T08:37:58;100342.00;;;12.08;98.16
39891;BME280;25564;53.312;9.790;2022-11-15T08:40:30;100341.72;;;12.18;98.03
39891;BME280;25564;53.312;9.790;2022-11-15T08:43:01;100350.44;;;12.23;98.00
39891;BME280;25564;53.312;9.790;2022-11-15T08:45:34;100337.81;;;12.29;97.90
39891;BME280;25564;53.312;9.790;2022-11-15T08:48:05;100345.63;;;12.35;97.96
39891;BME280;25564;53.312;9.790;2022-11-15T08:50:37;100345.47;;;12.40;97.72
39891;BME280;25564;53.312;9.790;2022-11-15T08:53:09;100348.81;;;12.47;97.76
39891;BME280;25564;53.312;9.790;2022-11-15T08:55:40;100339.75;;;12.52;97.85
39891;BME280;25564;53.312;9.790;2022-11-15T08:58:12;100342.25;;;12.57;97.74
39891;BME280;25564;53.312;9.790;2022-11-15T09:00:43;100338.59;;;12.61;97.64
39891;BME280;25564;53.312;9.790;2022-11-15T09:03:14;100342.78;;;12.68;97.92
39891;BME280;25564;53.312;9.790;2022-11-15T09:05:46;100350.44;;;12.78;97.68
39891;BME280;25564;53.312;9.790;2022-11-15T09:08:17;100345.53;;;12.93;97.90
39891;BME280;25564;53.312;9.790;2022-11-15T09:11:09;100341.59;;;13.04;97.56
39891;BME280;25564;53.312;9.790;2022-11-15T09:13:41;100343.00;;;13.15;97.54
39891;BME280;25564;53.312;9.790;2022-11-15T09:16:12;100340.06;;;13.24;97.60
39891;BME280;25564;53.312;9.790;2022-11-15T09:18:43;100332.72;;;13.30;97.26
39891;BME280;25564;53.312;9.790;2022-11-15T09:21:15;100345.09;;;13.33;97.27
39891;BME280;25564;53.312;9.790;2022-11-15T09:23:46;100336.97;;;13.36;97.01
39891;BME280;25564;53.312;9.790;2022-11-15T09:26:18;100342.22;;;13.39;97.07
39891;BME280;25564;53.312;9.790;2022-11-15T09:28:49;100344.66;;;13.45;97.18
39891;BME280;25564;53.312;9.790;2022-11-15T09:31:21;100342.66;;;13.52;97.42
39891;BME280;25564;53.312;9.790;2022-11-15T09:33:52;100338.03;;;13.55;97.39
39891;BME280;25564;53.312;9.790;2022-11-15T09:36:24;100341.41;;;13.60;97.22
39891;BME280;25564;53.312;9.790;2022-11-15T09:38:57;100339.56;;;13.62;97.00
39891;BME280;25564;53.312;9.790;2022-11-15T09:41:34;100335.97;;;13.63;97.15
39891;BME280;25564;53.312;9.790;2022-11-15T09:44:14;100347.41;;;13.67;97.24
39891;BME280;25564;53.312;9.790;2022-11-15T09:46:59;100342.81;;;13.70;97.18
39891;BME280;25564;53.312;9.790;2022-11-15T09:49:33;100339.94;;;13.77;97.42
39891;BME280;25564;53.312;9.790;2022-11-15T09:52:06;100348.56;;;13.83;97.51
39891;BME280;25564;53.312;9.790;2022-11-15T09:54:39;100342.97;;;13.91;97.42
39891;BME280;25564;53.312;9.790;2022-11-15T09:57:32;100339.94;;;14.00;97.44
39891;BME280;25564;53.312;9.790;2022-11-15T10:00:20;100353.06;;;14.06;97.30
39891;BME280;25564;53.312;9.790;2022-11-15T10:03:13;100347.63;;;14.09;97.28
39891;BME280;25564;53.312;9.790;2022-11-15T10:05:47;100344.00;;;14.10;97.21
39891;BME280;25564;53.312;9.790;2022-11-15T10:08:35;100332.34;;;14.13;97.14
39891;BME280;25564;53.312;9.790;2022-11-15T10:11:12;100338.50;;;14.15;97.05
39891;BME280;25564;53.312;9.790;2022-11-15T10:14:10;100330.31;;;14.19;97.14
39891;BME280;25564;53.312;9.790;2022-11-15T10:16:53;100330.19;;;14.22;97.39
39891;BME280;25564;53.312;9.790;2022-11-15T10:24:37;100323.19;;;14.43;97.29
39891;BME280;25564;53.312;9.790;2022-11-15T10:27:11;100328.22;;;14.51;97.23
39891;BME280;25564;53.312;9.790;2022-11-15T10:29:44;100320.81;;;14.57;97.24
39891;BME280;25564;53.312;9.790;2022-11-15T10:32:17;100325.91;;;14.63;96.78
39891;BME280;25564;53.312;9.790;2022-11-15T10:34:49;100323.97;;;14.67;96.69
39891;BME280;25564;53.312;9.790;2022-11-15T10:37:27;100321.31;;;14.67;96.75
39891;BME280;25564;53.312;9.790;2022-11-15T10:40:06;100316.97;;;14.64;96.76
39891;BME280;25564;53.312;9.790;2022-11-15T10:42:38;100310.88;;;14.61;96.66
39891;BME280;25564;53.312;9.790;2022-11-15T10:45:26;100303.78;;;14.60;96.76
39891;BME280;25564;53.312;9.790;2022-11-15T10:50:46;100300.25;;;14.59;96.89
39891;BME280;25564;53.312;9.790;2022-11-15T10:53:22;100290.56;;;14.57;96.84
39891;BME280;25564;53.312;9.790;2022-11-15T10:55:55;100288.91;;;14.54;96.73
39891;BME280;25564;53.312;9.790;2022-11-15T10:58:32;100288.91;;;14.54;96.59
39891;BME280;25564;53.312;9.790;2022-11-15T11:03:42;100273.91;;;14.52;96.82
39891;BME280;25564;53.312;9.790;2022-11-15T11:06:15;100267.63;;;14.53;96.83
39891;BME280;25564;53.312;9.790;2022-11-15T11:08:57;100263.00;;;14.56;96.73
39891;BME280;25564;53.312;9.790;2022-11-15T11:14:35;100271.13;;;14.75;96.89
39891;BME280;25564;53.312;9.790;2022-11-15T11:17:13;100262.28;;;14.73;96.78
39891;BME280;25564;53.312;9.790;2022-11-15T11:19:55;100219.28;;;14.59;97.14
39891;BME280;25564;53.312;9.790;2022-11-15T11:25:13;100261.13;;;15.00;97.00
39891;BME280;25564;53.312;9.790;2022-11-15T11:33:16;100261.13;;;15.00;96.54
39891;BME280;25564;53.312;9.790;2022-11-15T11:44:51;100254.72;;;15.04;96.38
39891;BME280;25564;53.312;9.790;2022-11-15T11:47:37;100250.91;;;15.10;96.64
39891;BME280;25564;53.312;9.790;2022-11-15T11:50:14;100244.56;;;15.13;96.27
39891;BME280;25564;53.312;9.790;2022-11-15T11:52:53;100253.50;;;15.12;96.20
39891;BME280;25564;53.312;9.790;2022-11-15T12:03:34;100250.97;;;15.29;96.47
39891;BME280;25564;53.312;9.790;2022-11-15T12:06:53;100241.59;;;15.39;96.32
39891;BME280;25564;53.312;9.790;2022-11-15T12:09:02;100239.44;;;15.47;96.19
39891;BME280;25564;53.312;9.790;2022-11-15T12:14:10;100238.44;;;15.50;96.12
39891;BME280;25564;53.312;9.790;2022-11-15T12:16:43;100233.97;;;15.50;96.03
39891;BME280;25564;53.312;9.790;2022-11-15T12:19:14;100231.09;;;15.55;96.03
39891;BME280;25564;53.312;9.790;2022-11-15T12:21:47;100229.78;;;15.63;96.32
39891;BME280;25564;53.312;9.790;2022-11-15T12:24:26;100230.31;;;15.72;96.24
39891;BME280;25564;53.312;9.790;2022-11-15T12:29:41;100230.69;;;15.83;95.95
39891;BME280;25564;53.312;9.790;2022-11-15T12:32:19;100228.66;;;15.88;96.07
39891;BME280;25564;53.312;9.790;2022-11-15T12:34:54;100222.06;;;15.95;96.09
39891;BME280;25564;53.312;9.790;2022-11-15T12:37:32;100219.03;;;16.02;96.08
39891;BME280;25564;53.312;9.790;2022-11-15T12:42:42;100208.09;;;16.07;95.83
39891;BME280;25564;53.312;9.790;2022-11-15T12:53:30;100186.47;;;16.12;95.96
39891;BME280;25564;53.312;9.790;2022-11-15T12:58:43;100181.50;;;16.04;95.75
39891;BME280;25564;53.312;9.790;2022-11-15T13:12:08;100161.81;;;15.86;95.63
39891;BME280;25564;53.312;9.790;2022-11-15T13:14:41;100159.22;;;15.85;95.92
39891;BME280;25564;53.312;9.790;2022-11-15T13:19:57;100141.44;;;15.84;95.67
39891;BME280;25564;53.312;9.790;2022-11-15T13:22:38;100145.78;;;15.86;95.65
39891;BME280;25564;53.312;9.790;2022-11-15T13:30:56;100146.00;;;15.82;95.22
39891;BME280;25564;53.312;9.790;2022-11-15T13:33:36;100139.84;;;15.80;95.23
39891;BME280;25564;53.312;9.790;2022-11-15T13:36:24;100150.69;;;15.77;95.14
39891;BME280;25564;53.312;9.790;2022-11-15T13:39:06;100143.75;;;15.73;95.24
39891;BME280;25564;53.312;9.790;2022-11-15T13:41:47;100143.75;;;15.73;95.31
39891;BME280;25564;53.312;9.790;2022-11-15T13:44:37;100149.97;;;15.73;95.42
39891;BME280;25564;53.312;9.790;2022-11-15T13:47:14;100132.91;;;15.76;95.54
39891;BME280;25564;53.312;9.790;2022-11-15T13:49:46;100137.03;;;15.83;95.54
39891;BME280;25564;53.312;9.790;2022-11-15T13:52:17;100134.78;;;15.92;95.36
39891;BME280;25564;53.312;9.790;2022-11-15T13:55:31;100139.81;;;15.98;95.02
39891;BME280;25564;53.312;9.790;2022-11-15T13:57:51;100133.53;;;15.99;94.84
39891;BME280;25564;53.312;9.790;2022-11-15T14:00:25;100124.47;;;16.02;94.68
39891;BME280;25564;53.312;9.790;2022-11-15T14:02:57;100128.09;;;16.01;94.58
39891;BME280;25564;53.312;9.790;2022-11-15T14:05:35;100128.25;;;15.98;94.16
39891;BME280;25564;53.312;9.790;2022-11-15T14:11:05;100116.50;;;15.83;94.15
39891;BME280;25564;53.312;9.790;2022-11-15T14:13:37;100103.78;;;15.69;94.24
39891;BME280;25564;53.312;9.790;2022-11-15T14:16:12;100119.59;;;15.57;94.28
39891;BME280;25564;53.312;9.790;2022-11-15T14:18:48;100129.75;;;15.49;94.32
39891;BME280;25564;53.312;9.790;2022-11-15T14:21:19;100122.88;;;15.43;94.52
39891;BME280;25564;53.312;9.790;2022-11-15T14:23:51;100121.34;;;15.37;94.52
39891;BME280;25564;53.312;9.790;2022-11-15T14:26:32;100122.50;;;15.32;94.72
39891;BME280;25564;53.312;9.790;2022-11-15T14:32:05;100114.41;;;15.15;94.63
39891;BME280;25564;53.312;9.790;2022-11-15T14:34:37;100114.69;;;15.09;94.85
39891;BME280;25564;53.312;9.790;2022-11-15T14:37:14;100115.03;;;15.01;94.64
39891;BME280;25564;53.312;9.790;2022-11-15T15:04:55;100113.53;;;14.75;77.62
39891;BME280;25564;53.312;9.790;2022-11-15T15:07:26;100123.06;;;14.81;78.75
39891;BME280;25564;53.312;9.790;2022-11-15T15:09:58;100121.06;;;14.65;79.08
39891;BME280;25564;53.312;9.790;2022-11-15T15:12:50;100110.72;;;14.37;79.86
39891;BME280;25564;53.312;9.790;2022-11-15T15:15:24;100108.13;;;14.14;80.54
39891;BME280;25564;53.312;9.790;2022-11-15T15:17:56;100106.50;;;13.90;80.83
39891;BME280;25564;53.312;9.790;2022-11-15T15:20:27;100108.97;;;13.72;81.15
39891;BME280;25564;53.312;9.790;2022-11-15T15:23:00;100098.16;;;13.54;81.63
39891;BME280;25564;53.312;9.790;2022-11-15T15:25:33;100104.00;;;13.41;81.98
39891;BME280;25564;53.312;9.790;2022-11-15T15:28:06;100095.84;;;13.23;82.57
39891;BME280;25564;53.312;9.790;2022-11-15T15:30:37;100109.50;;;13.14;82.42
39891;BME280;25564;53.312;9.790;2022-11-15T15:33:09;100098.47;;;12.99;82.77
39891;BME280;25564;53.312;9.790;2022-11-15T15:35:41;100098.81;;;12.90;82.96
39891;BME280;25564;53.312;9.790;2022-11-15T15:38:13;100105.34;;;12.82;83.15